createdAt,value
2022-10-12T00:02:26.332Z,97352.00
2022-10-12T00:04:58.528Z,97354.72
2022-10-12T00:07:27.827Z,97349.66
2022-10-12T00:10:01.774Z,97347.03
2022-10-12T00:12:34.873Z,97352.28
2022-10-12T00:15:18.926Z,97357.75
2022-10-12T00:17:51.697Z,97350.84
2022-10-12T00:20:25.336Z,97344.41
2022-10-12T00:22:58.437Z,97357.34
2022-10-12T00:25:33.004Z,97351.31
2022-10-12T00:28:08.186Z,97347.25
2022-10-12T00:30:47.778Z,97347.59
2022-10-12T00:33:23.921Z,97343.72
2022-10-12T00:35:56.049Z,97343.72
2022-10-12T00:38:25.573Z,97344.56
2022-10-12T00:40:58.745Z,97340.75
2022-10-12T00:43:35.015Z,97342.34
2022-10-12T00:46:12.887Z,97350.03
2022-10-12T00:48:43.199Z,97346.41
2022-10-12T00:51:12.158Z,97342.97
2022-10-12T00:53:44.858Z,97336.13
2022-10-12T00:56:19.926Z,97333.22
2022-10-12T00:58:52.041Z,97340.84
2022-10-12T01:01:23.623Z,97339.41
2022-10-12T01:04:00.972Z,97336.00
2022-10-12T01:06:30.425Z,97339.97
2022-10-12T01:09:00.873Z,97339.53
2022-10-12T01:11:29.586Z,97336.44
2022-10-12T01:13:58.772Z,97332.94
2022-10-12T01:16:40.765Z,97330.88
2022-10-12T01:19:38.453Z,97328.81
2022-10-12T01:22:10.753Z,97332.44
2022-10-12T01:24:56.409Z,97325.19
2022-10-12T01:27:47.856Z,97318.97
2022-10-12T01:30:23.428Z,97318.97
2022-10-12T01:33:13.615Z,97316.69
2022-10-12T01:35:51.454Z,97318.69
2022-10-12T01:38:31.385Z,97319.69
2022-10-12T01:41:06.172Z,97315.47
2022-10-12T01:43:36.403Z,97317.69
2022-10-12T01:46:46.513Z,97315.81
2022-10-12T01:49:18.858Z,97324.22
2022-10-12T01:52:18.168Z,97314.75
2022-10-12T01:55:03.158Z,97323.44
2022-10-12T01:57:41.900Z,97315.28
2022-10-12T02:00:13.120Z,97321.63
2022-10-12T02:02:53.926Z,97314.16
2022-10-12T02:05:32.769Z,97320.38
2022-10-12T02:08:07.761Z,97316.31
2022-10-12T02:10:41.481Z,97316.84
2022-10-12T02:13:15.110Z,97317.03
2022-10-12T02:15:46.093Z,97321.13
2022-10-12T02:18:20.056Z,97318.22
2022-10-12T02:20:51.568Z,97312.34
2022-10-12T02:23:21.199Z,97309.28
2022-10-12T02:25:51.928Z,97310.44
2022-10-12T02:28:24.033Z,97312.81
2022-10-12T02:30:58.904Z,97310.72
2022-10-12T02:33:33.701Z,97317.28
2022-10-12T02:36:07.435Z,97313.88
2022-10-12T02:38:39.624Z,97310.06
2022-10-12T02:41:13.448Z,97308.25
2022-10-12T03:32:59.621Z,97291.28
2022-10-12T03:40:23.988Z,97297.34
2022-10-12T06:16:24.952Z,97361.88
2022-10-12T07:49:20.638Z,97363.69
2022-10-12T07:51:49.655Z,97360.38
2022-10-12T08:02:25.723Z,97356.38
2022-10-12T08:04:58.032Z,97362.69
2022-10-12T16:29:37.599Z,97243.75
2022-10-12T16:32:07.035Z,97244.78
2022-10-12T16:34:36.374Z,97246.22
2022-10-12T17:15:19.609Z,97263.63
2022-10-12T17:17:50.019Z,97266.25
